Time;durP1;ratioP1;P1;durP2;ratioP2;P2;SDS_P1;SDS_P2;PMS_P1;PMS_P2;Temp;Humidity;BMP_temperature;BMP_pressure;BME280_temperature;BME280_humidity;BME280_pressure;Samples;Min_cycle;Max_cycle;Signal;HPM_P1;HPM_P2
2023/07/08 00:00:09;;;;;;;3.28;2.05;;;;;;;;;;5144195;27;20038;-66
2023/07/08 00:02:36;;;;;;;;;;;;;;;;;;5141977;27;20051;-65
2023/07/08 00:05:03;;;;;;;3.47;2.10;;;;;;;;;;5141488;27;19923;-65
2023/07/08 00:07:32;;;;;;;4.85;2.38;;;;;;;;;;5141613;27;20473;-65
2023/07/08 00:09:59;;;;;;;3.60;2.30;;;;;;;;;;5145254;27;20042;-65
2023/07/08 00:12:27;;;;;;;3.55;2.30;;;;;;;;;;5147783;27;20054;-65
2023/07/08 00:14:54;;;;;;;3.78;2.40;;;;;;;;;;5138859;27;20051;-65
2023/07/08 00:17:21;;;;;;;7.38;2.65;;;;;;;;;;5144596;27;20046;-65
2023/07/08 00:19:50;;;;;;;4.38;2.53;;;;;;;;;;5143515;27;20043;-65
2023/07/08 00:22:18;;;;;;;2.83;2.15;;;;;;;;;;5142965;27;20051;-65
2023/07/08 00:24:46;;;;;;;4.32;2.20;;;;;;;;;;5144419;27;20068;-65
2023/07/08 00:27:14;;;;;;;4.07;2.13;;;;;;;;;;5138114;27;20049;-65
2023/07/08 00:29:42;;;;;;;4.50;2.45;;;;;;;;;;5143197;27;20053;-65
2023/07/08 00:32:13;;;;;;;4.07;2.40;;;;;;;;;;5145162;27;20405;-65
2023/07/08 00:34:41;;;;;;;3.67;2.25;;;;;;;;;;5137919;27;20050;-66
2023/07/08 00:37:10;;;;;;;3.70;2.13;;;;;;;;;;5142943;27;20442;-65
2023/07/08 00:39:38;;;;;;;4.68;2.40;;;;;;;;;;5141644;27;20051;-65
2023/07/08 00:42:12;;;;;;;3.85;2.10;;;;;;;;;;5148714;27;20057;-65
2023/07/08 00:44:40;;;;;;;3.63;2.00;;;;;;;;;;5138331;27;20058;-65
2023/07/08 00:47:10;;;;;;;5.70;2.50;;;;;;;;;;5141214;27;20528;-66
2023/07/08 00:49:40;;;;;;;5.55;2.40;;;;;;;;;;5142577;27;20042;-65
2023/07/08 00:52:21;;;;;;;3.55;2.40;;;;;;;;;;5146341;27;20518;-65
2023/07/08 00:54:50;;;;;;;3.83;2.55;;;;;;;;;;5142295;27;20046;-66
2023/07/08 00:57:19;;;;;;;6.40;2.22;;;;;;;;;;5140389;27;20043;-65
2023/07/08 00:59:50;;;;;;;6.15;2.60;;;;;;;;;;5144045;27;20527;-65
2023/07/08 01:02:18;;;;;;;4.90;2.45;;;;;;;;;;5144319;27;20050;-65
2023/07/08 01:04:52;;;;;;;4.15;2.30;;;;;;;;;;5143959;27;20065;-65
2023/07/08 01:07:21;;;;;;;6.93;2.28;;;;;;;;;;5147570;27;20046;-66
2023/07/08 01:09:49;;;;;;;4.32;2.38;;;;;;;;;;5142363;27;20074;-65
2023/07/08 01:12:19;;;;;;;4.43;2.38;;;;;;;;;;5146779;27;20125;-65
2023/07/08 01:14:49;;;;;;;3.97;2.55;;;;;;;;;;5141741;27;20493;-65
2023/07/08 01:17:16;;;;;;;5.57;2.55;;;;;;;;;;5137924;27;20061;-65
2023/07/08 01:19:44;;;;;;;3.42;2.25;;;;;;;;;;5146272;27;20413;-66
2023/07/08 01:22:13;;;;;;;3.70;2.10;;;;;;;;;;5145947;27;20481;-65
2023/07/08 01:24:42;;;;;;;6.38;2.17;;;;;;;;;;5124996;27;20126;-66
2023/07/08 01:27:12;;;;;;;4.25;2.35;;;;;;;;;;5141174;27;20051;-65
2023/07/08 01:29:39;;;;;;;2.97;2.10;;;;;;;;;;5142169;27;20050;-65
2023/07/08 01:32:07;;;;;;;5.15;2.40;;;;;;;;;;5144584;27;20068;-66
2023/07/08 01:34:34;;;;;;;5.55;2.55;;;;;;;;;;5136954;27;20059;-65
2023/07/08 01:37:03;;;;;;;3.92;2.60;;;;;;;;;;5137231;27;20047;-65
2023/07/08 01:39:33;;;;;;;3.75;2.30;;;;;;;;;;5144895;27;20360;-66
2023/07/08 01:42:00;;;;;;;5.90;2.30;;;;;;;;;;5128957;27;20046;-65
2023/07/08 01:44:29;;;;;;;3.90;2.30;;;;;;;;;;5148261;27;20520;-66
2023/07/08 01:46:58;;;;;;;3.75;2.30;;;;;;;;;;5140899;27;21238;-65
2023/07/08 01:49:26;;;;;;;5.88;2.53;;;;;;;;;;5138990;27;20047;-65
2023/07/08 01:51:53;;;;;;;5.47;2.50;;;;;;;;;;5139911;27;20051;-65
2023/07/08 01:54:21;;;;;;;3.85;2.58;;;;;;;;;;5136114;27;20039;-65
2023/07/08 01:56:51;;;;;;;3.95;2.50;;;;;;;;;;5124515;27;20141;-65
2023/07/08 01:59:18;;;;;;;4.60;2.65;;;;;;;;;;5144014;27;20054;-65
2023/07/08 02:01:47;;;;;;;4.72;2.13;;;;;;;;;;5145859;27;20050;-65
2023/07/08 02:04:14;;;;;;;5.15;2.35;;;;;;;;;;5140416;27;20075;-65
2023/07/08 02:06:42;;;;;;;5.20;2.55;;;;;;;;;;5142875;27;20046;-65
2023/07/08 02:09:09;;;;;;;4.68;2.60;;;;;;;;;;5146710;27;20039;-65
2023/07/08 02:11:36;;;;;;;6.18;2.67;;;;;;;;;;5146581;27;20047;-65
2023/07/08 02:14:05;;;;;;;5.05;2.75;;;;;;;;;;5150067;27;20047;-65
2023/07/08 02:16:32;;;;;;;7.43;2.67;;;;;;;;;;5142518;27;20048;-65
2023/07/08 02:19:00;;;;;;;4.78;2.75;;;;;;;;;;5142343;27;20499;-65
2023/07/08 02:21:30;;;;;;;4.65;2.60;;;;;;;;;;5141968;27;20058;-65
2023/07/08 02:23:58;;;;;;;4.25;2.70;;;;;;;;;;5148433;27;20074;-65
2023/07/08 02:26:26;;;;;;;5.97;3.03;;;;;;;;;;5143804;27;20066;-65
2023/07/08 02:28:53;;;;;;;5.82;3.20;;;;;;;;;;5146117;27;20130;-65
2023/07/08 02:31:24;;;;;;;6.70;2.80;;;;;;;;;;5145264;27;20046;-66
2023/07/08 02:33:51;;;;;;;4.78;2.75;;;;;;;;;;5144873;27;20074;-65
2023/07/08 02:36:19;;;;;;;5.82;2.63;;;;;;;;;;5127338;27;20057;-66
2023/07/08 02:38:46;;;;;;;7.05;2.60;;;;;;;;;;5148098;27;20039;-65
2023/07/08 02:41:13;;;;;;;4.70;2.90;;;;;;;;;;5139805;27;20069;-65
2023/07/08 02:43:41;;;;;;;4.30;2.42;;;;;;;;;;5151065;27;20054;-65
2023/07/08 02:46:08;;;;;;;6.57;2.75;;;;;;;;;;5146606;27;20054;-65
2023/07/08 02:48:37;;;;;;;3.78;2.35;;;;;;;;;;5143464;27;20031;-65
2023/07/08 02:51:05;;;;;;;4.32;2.88;;;;;;;;;;5130779;27;20215;-65
2023/07/08 02:53:32;;;;;;;3.83;2.60;;;;;;;;;;5139444;27;20382;-65
2023/07/08 02:56:00;;;;;;;5.47;2.97;;;;;;;;;;5137383;27;20104;-65
2023/07/08 02:58:27;;;;;;;4.07;2.70;;;;;;;;;;5146607;27;20051;-65
2023/07/08 03:00:54;;;;;;;4.90;2.97;;;;;;;;;;5138267;27;20058;-65
2023/07/08 03:03:22;;;;;;;7.15;3.00;;;;;;;;;;5139943;27;20043;-65
2023/07/08 03:05:56;;;;;;;6.18;2.72;;;;;;;;;;5148263;27;20054;-65
2023/07/08 03:08:24;;;;;;;5.00;2.75;;;;;;;;;;5145254;27;21401;-65
2023/07/08 03:10:56;;;;;;;6.72;2.65;;;;;;;;;;5141012;27;20055;-65
2023/07/08 03:13:23;;;;;;;4.68;2.60;;;;;;;;;;5138052;27;20695;-65
2023/07/08 03:15:51;;;;;;;5.78;2.67;;;;;;;;;;5147198;27;20050;-65
2023/07/08 03:18:21;;;;;;;5.07;2.90;;;;;;;;;;5145283;27;20158;-65
2023/07/08 03:20:49;;;;;;;9.30;3.00;;;;;;;;;;5147545;27;20549;-65
2023/07/08 03:23:17;;;;;;;6.95;2.88;;;;;;;;;;5142836;27;20378;-65
2023/07/08 03:25:44;;;;;;;6.35;3.25;;;;;;;;;;5143743;27;20504;-65
2023/07/08 03:28:14;;;;;;;5.60;3.13;;;;;;;;;;5141543;27;20051;-65
2023/07/08 03:30:42;;;;;;;7.13;2.88;;;;;;;;;;5143178;27;20039;-65
2023/07/08 03:33:09;;;;;;;6.07;2.80;;;;;;;;;;5147313;27;20092;-65
2023/07/08 03:35:36;;;;;;;5.10;2.80;;;;;;;;;;5136482;27;20071;-65
2023/07/08 03:38:04;;;;;;;7.95;3.05;;;;;;;;;;5134728;27;20046;-65
2023/07/08 03:40:33;;;;;;;5.68;3.15;;;;;;;;;;5138252;27;20481;-65
2023/07/08 03:43:00;;;;;;;5.57;3.00;;;;;;;;;;5141372;27;20534;-65
2023/07/08 03:45:27;;;;;;;6.57;2.97;;;;;;;;;;5143703;27;20042;-65
2023/07/08 03:47:55;;;;;;;4.35;2.92;;;;;;;;;;5120532;27;20054;-65
2023/07/08 03:50:24;;;;;;;5.65;2.90;;;;;;;;;;5147224;27;20393;-65
2023/07/08 03:52:52;;;;;;;5.68;3.08;;;;;;;;;;5128346;27;20043;-66
2023/07/08 03:55:19;;;;;;;4.43;3.05;;;;;;;;;;5142718;27;20050;-65
2023/07/08 03:57:48;;;;;;;5.40;3.20;;;;;;;;;;5146471;27;20431;-65
2023/07/08 04:00:15;;;;;;;4.32;3.00;;;;;;;;;;5142887;27;20038;-66
2023/07/08 04:02:43;;;;;;;7.18;3.10;;;;;;;;;;5145818;27;20046;-65
2023/07/08 04:05:14;;;;;;;4.80;2.85;;;;;;;;;;5144039;27;20051;-65
2023/07/08 04:07:42;;;;;;;6.25;3.03;;;;;;;;;;5135872;27;20074;-66
2023/07/08 04:10:09;;;;;;;5.45;3.20;;;;;;;;;;5124255;27;20561;-65
2023/07/08 04:12:36;;;;;;;5.72;3.05;;;;;;;;;;5144068;27;20042;-65
2023/07/08 04:15:06;;;;;;;5.25;3.10;;;;;;;;;;5137720;27;20047;-65
2023/07/08 04:17:33;;;;;;;4.68;2.83;;;;;;;;;;5144552;27;20366;-66
2023/07/08 04:20:03;;;;;;;6.13;3.08;;;;;;;;;;5146543;27;20477;-65
2023/07/08 04:22:31;;;;;;;6.55;3.00;;;;;;;;;;5142710;27;20493;-65
2023/07/08 04:24:58;;;;;;;5.65;3.08;;;;;;;;;;5141974;27;20111;-65
2023/07/08 04:27:25;;;;;;;7.03;3.50;;;;;;;;;;5139054;27;20051;-65
2023/07/08 04:29:52;;;;;;;6.13;3.33;;;;;;;;;;5137381;27;20387;-65
2023/07/08 04:32:24;;;;;;;6.32;3.13;;;;;;;;;;5145319;27;20511;-65
2023/07/08 04:34:52;;;;;;;5.30;3.38;;;;;;;;;;5136820;27;20047;-65
2023/07/08 04:37:19;;;;;;;4.22;2.90;;;;;;;;;;5140104;27;20096;-65
2023/07/08 04:39:47;;;;;;;6.82;2.75;;;;;;;;;;5147479;27;20047;-65
2023/07/08 04:42:17;;;;;;;7.28;3.25;;;;;;;;;;5145206;27;20037;-65
2023/07/08 04:44:44;;;;;;;5.50;3.10;;;;;;;;;;5119995;27;20074;-65
2023/07/08 04:47:13;;;;;;;5.28;3.25;;;;;;;;;;5146197;27;20039;-65
2023/07/08 04:49:43;;;;;;;7.13;2.90;;;;;;;;;;5143521;27;20035;-65
2023/07/08 04:52:11;;;;;;;6.63;3.15;;;;;;;;;;5141570;27;20050;-64
2023/07/08 04:54:38;;;;;;;4.78;3.05;;;;;;;;;;5141977;27;21818;-63
2023/07/08 04:57:05;;;;;;;3.33;2.55;;;;;;;;;;5140410;27;20072;-63
2023/07/08 04:59:34;;;;;;;4.18;2.90;;;;;;;;;;5136727;27;20491;-64
2023/07/08 05:02:01;;;;;;;5.60;2.88;;;;;;;;;;5143031;27;20086;-65
2023/07/08 05:04:28;;;;;;;5.68;2.97;;;;;;;;;;5123813;27;20042;-66
2023/07/08 05:06:57;;;;;;;5.65;3.05;;;;;;;;;;5144278;27;20071;-66
2023/07/08 05:09:25;;;;;;;5.50;2.88;;;;;;;;;;5144185;27;20039;-66
2023/07/08 05:11:53;;;;;;;4.50;3.03;;;;;;;;;;5133556;27;20059;-65
2023/07/08 05:14:20;;;;;;;5.70;2.90;;;;;;;;;;5138013;27;20042;-65
2023/07/08 05:16:48;;;;;;;4.40;2.90;;;;;;;;;;5140220;27;20062;-65
2023/07/08 05:19:15;;;;;;;6.07;2.83;;;;;;;;;;5139523;27;20046;-65
2023/07/08 05:21:42;;;;;;;4.57;2.58;;;;;;;;;;5136688;27;20443;-64
2023/07/08 05:24:11;;;;;;;5.15;2.63;;;;;;;;;;5135985;27;20502;-66
2023/07/08 05:26:38;;;;;;;3.97;3.00;;;;;;;;;;5136026;27;22105;-65
2023/07/08 05:29:06;;;;;;;4.32;2.55;;;;;;;;;;5142922;27;20050;-65
2023/07/08 05:31:35;;;;;;;5.68;3.25;;;;;;;;;;5138886;27;20047;-66
2023/07/08 05:34:02;;;;;;;3.88;2.58;;;;;;;;;;5141380;27;20047;-65
2023/07/08 05:36:29;;;;;;;4.10;2.70;;;;;;;;;;5141128;27;20058;-66
2023/07/08 05:38:57;;;;;;;4.43;2.38;;;;;;;;;;5136911;27;20481;-66
2023/07/08 05:41:25;;;;;;;4.53;2.70;;;;;;;;;;5144978;27;20066;-65
2023/07/08 05:43:53;;;;;;;4.20;2.45;;;;;;;;;;5142907;27;20053;-65
2023/07/08 05:46:20;;;;;;;5.57;2.58;;;;;;;;;;5142783;27;20054;-66
2023/07/08 05:48:48;;;;;;;6.90;2.55;;;;;;;;;;5145244;27;20412;-65
2023/07/08 05:51:16;;;;;;;4.97;2.90;;;;;;;;;;5146147;27;20043;-65
2023/07/08 05:53:43;;;;;;;5.55;2.55;;;;;;;;;;5145312;27;20039;-65
2023/07/08 05:56:10;;;;;;;5.15;2.22;;;;;;;;;;5145715;27;20127;-65
2023/07/08 05:58:39;;;;;;;4.13;2.20;;;;;;;;;;5148159;27;20053;-65
2023/07/08 06:01:06;;;;;;;3.85;2.60;;;;;;;;;;5145181;27;20043;-65
2023/07/08 06:03:33;;;;;;;3.35;2.50;;;;;;;;;;5141827;27;20066;-65
2023/07/08 06:06:02;;;;;;;3.92;2.28;;;;;;;;;;5143856;27;20054;-66
2023/07/08 06:08:29;;;;;;;5.60;2.63;;;;;;;;;;5136324;27;20138;-65
2023/07/08 06:10:56;;;;;;;4.57;2.13;;;;;;;;;;5137854;27;20390;-65
2023/07/08 06:13:23;;;;;;;4.03;2.40;;;;;;;;;;5148566;27;20054;-65
2023/07/08 06:15:52;;;;;;;4.28;2.30;;;;;;;;;;5124815;27;20054;-65
2023/07/08 06:18:19;;;;;;;4.30;2.35;;;;;;;;;;5143336;27;20378;-65
2023/07/08 06:20:52;;;;;;;4.57;2.50;;;;;;;;;;5138188;27;20072;-64
2023/07/08 06:23:19;;;;;;;5.10;2.42;;;;;;;;;;5142079;27;20043;-64
2023/07/08 06:25:47;;;;;;;3.88;2.30;;;;;;;;;;5145822;27;20073;-65
2023/07/08 06:28:14;;;;;;;8.07;2.50;;;;;;;;;;5150134;27;20370;-64
2023/07/08 06:30:41;;;;;;;3.35;2.25;;;;;;;;;;5142546;27;20043;-64
2023/07/08 06:33:11;;;;;;;3.47;2.25;;;;;;;;;;5151049;27;20072;-66
2023/07/08 06:35:38;;;;;;;3.00;1.90;;;;;;;;;;5143220;27;20043;-65
2023/07/08 06:38:05;;;;;;;3.92;2.00;;;;;;;;;;5143748;27;20396;-65
2023/07/08 06:40:33;;;;;;;3.75;2.20;;;;;;;;;;5149869;27;20045;-63
2023/07/08 06:43:00;;;;;;;5.28;2.33;;;;;;;;;;5146032;27;20043;-73
2023/07/08 06:45:27;;;;;;;6.20;2.30;;;;;;;;;;5143349;27;20051;-71
2023/07/08 06:47:55;;;;;;;5.55;2.30;;;;;;;;;;5147829;27;20081;-69
2023/07/08 06:50:23;;;;;;;6.78;2.25;;;;;;;;;;5143690;27;20043;-69
2023/07/08 06:52:51;;;;;;;3.58;2.10;;;;;;;;;;5139285;27;20043;-69
2023/07/08 06:55:18;;;;;;;4.15;2.20;;;;;;;;;;5145569;27;20049;-71
2023/07/08 06:57:45;;;;;;;7.32;1.83;;;;;;;;;;5143852;27;20042;-72
2023/07/08 07:00:13;;;;;;;3.45;2.00;;;;;;;;;;5147541;27;20466;-69
2023/07/08 07:02:40;;;;;;;2.92;2.10;;;;;;;;;;5143362;27;20420;-72
2023/07/08 07:05:08;;;;;;;4.82;1.90;;;;;;;;;;5144092;27;20089;-69
2023/07/08 07:07:36;;;;;;;2.75;1.90;;;;;;;;;;5140155;27;20058;-71
2023/07/08 07:10:05;;;;;;;2.92;2.08;;;;;;;;;;5148919;27;20131;-70
2023/07/08 07:12:32;;;;;;;5.45;1.80;;;;;;;;;;5143557;27;20469;-67
2023/07/08 07:15:00;;;;;;;3.92;2.17;;;;;;;;;;5141892;27;20043;-68
2023/07/08 07:17:27;;;;;;;3.55;2.00;;;;;;;;;;5141763;27;20497;-72
2023/07/08 07:19:54;;;;;;;2.40;1.75;;;;;;;;;;5150421;27;20042;-69
2023/07/08 07:22:21;;;;;;;2.70;1.80;;;;;;;;;;5141660;27;20046;-70
2023/07/08 07:24:50;;;;;;;6.47;1.80;;;;;;;;;;5146039;27;20043;-70
2023/07/08 07:27:17;;;;;;;8.23;1.95;;;;;;;;;;5141880;27;20039;-68
2023/07/08 07:29:45;;;;;;;3.38;1.73;;;;;;;;;;5142482;27;20039;-69
2023/07/08 07:32:14;;;;;;;6.60;2.03;;;;;;;;;;5147100;27;20489;-68
2023/07/08 07:34:41;;;;;;;2.75;2.00;;;;;;;;;;5140451;27;20485;-68
2023/07/08 07:37:12;;;;;;;6.00;2.15;;;;;;;;;;5142954;27;20135;-69
2023/07/08 07:39:39;;;;;;;3.05;1.80;;;;;;;;;;5139662;27;20077;-71
2023/07/08 07:42:08;;;;;;;4.72;1.73;;;;;;;;;;5147487;27;20039;-69
2023/07/08 07:44:35;;;;;;;2.75;1.83;;;;;;;;;;5146326;27;20082;-70
2023/07/08 07:47:03;;;;;;;7.32;2.20;;;;;;;;;;5149944;27;20066;-70
2023/07/08 07:49:30;;;;;;;3.85;1.90;;;;;;;;;;5135887;27;20460;-71
2023/07/08 07:51:58;;;;;;;5.93;1.90;;;;;;;;;;5143968;27;20073;-70
2023/07/08 07:54:25;;;;;;;3.28;1.67;;;;;;;;;;5124676;27;20054;-70
2023/07/08 07:56:52;;;;;;;3.17;1.95;;;;;;;;;;5147721;27;20051;-71
2023/07/08 07:59:21;;;;;;;6.38;1.90;;;;;;;;;;5147500;27;20057;-71
2023/07/08 08:01:48;;;;;;;5.13;1.77;;;;;;;;;;5145666;27;20051;-70
2023/07/08 08:04:15;;;;;;;3.20;1.80;;;;;;;;;;5149011;27;20043;-71
2023/07/08 08:06:43;;;;;;;2.75;1.70;;;;;;;;;;5143793;27;20497;-71
2023/07/08 08:09:10;;;;;;;2.10;1.50;;;;;;;;;;5148028;27;20069;-71
2023/07/08 08:11:37;;;;;;;3.17;1.80;;;;;;;;;;5142627;27;20051;-71
2023/07/08 08:14:04;;;;;;;2.33;1.73;;;;;;;;;;5145856;27;20047;-71
2023/07/08 08:16:33;;;;;;;3.10;1.73;;;;;;;;;;5136936;27;20521;-70
2023/07/08 08:19:00;;;;;;;3.05;1.95;;;;;;;;;;5144837;27;20501;-71
2023/07/08 08:21:27;;;;;;;3.00;1.83;;;;;;;;;;5141721;27;20046;-71
2023/07/08 08:23:55;;;;;;;4.55;1.70;;;;;;;;;;5145485;27;20493;-70
2023/07/08 08:26:22;;;;;;;2.78;1.80;;;;;;;;;;5140221;27;20050;-70
2023/07/08 08:28:49;;;;;;;3.70;1.60;;;;;;;;;;5145527;27;20074;-70
2023/07/08 08:31:16;;;;;;;3.55;1.58;;;;;;;;;;5142418;27;20039;-71
2023/07/08 08:33:45;;;;;;;2.05;1.52;;;;;;;;;;5143881;27;20053;-71
2023/07/08 08:36:12;;;;;;;2.83;1.73;;;;;;;;;;5128807;27;20078;-70
2023/07/08 08:38:40;;;;;;;1.85;1.60;;;;;;;;;;5122633;27;20078;-70
2023/07/08 08:41:13;;;;;;;3.38;1.90;;;;;;;;;;5138215;27;20043;-71
2023/07/08 08:43:41;;;;;;;2.25;1.67;;;;;;;;;;5137346;27;20128;-71
2023/07/08 08:46:13;;;;;;;2.83;1.98;;;;;;;;;;5143545;27;20050;-70
2023/07/08 08:48:44;;;;;;;3.03;1.70;;;;;;;;;;5146810;27;20057;-71
2023/07/08 08:51:15;;;;;;;4.22;1.80;;;;;;;;;;5142530;27;20477;-70
2023/07/08 08:53:42;;;;;;;2.50;1.67;;;;;;;;;;5142004;27;20047;-70
2023/07/08 08:56:13;;;;;;;3.92;1.70;;;;;;;;;;5141276;27;20499;-71
2023/07/08 08:58:44;;;;;;;2.33;1.70;;;;;;;;;;5145198;27;20058;-71
2023/07/08 09:01:13;;;;;;;3.88;1.50;;;;;;;;;;5138331;27;20428;-70
2023/07/08 09:03:44;;;;;;;3.28;1.90;;;;;;;;;;5144763;27;20050;-70
2023/07/08 09:06:15;;;;;;;2.95;1.90;;;;;;;;;;5144485;27;20239;-71
2023/07/08 09:08:43;;;;;;;3.75;1.67;;;;;;;;;;5148252;27;20050;-70
2023/07/08 09:11:20;;;;;;;2.22;1.65;;;;;;;;;;5137119;27;20124;-71
2023/07/08 09:13:48;;;;;;;2.50;1.50;;;;;;;;;;5140764;27;20042;-71
2023/07/08 09:16:18;;;;;;;4.18;1.75;;;;;;;;;;5143313;27;20054;-70
2023/07/08 09:18:49;;;;;;;3.20;1.67;;;;;;;;;;5146571;27;20061;-71
2023/07/08 09:21:21;;;;;;;5.18;1.88;;;;;;;;;;5149060;27;20126;-71
2023/07/08 09:23:49;;;;;;;2.58;1.77;;;;;;;;;;5147045;27;20129;-72
2023/07/08 09:26:18;;;;;;;3.00;2.00;;;;;;;;;;5137871;27;20046;-71
2023/07/08 09:28:46;;;;;;;2.58;1.70;;;;;;;;;;5147429;27;20397;-71
2023/07/08 09:31:22;;;;;;;2.90;1.90;;;;;;;;;;5143751;27;20493;-71
2023/07/08 09:33:52;;;;;;;6.53;1.70;;;;;;;;;;5147112;27;20504;-71
2023/07/08 09:36:23;;;;;;;3.00;1.83;;;;;;;;;;5148334;27;20045;-71
2023/07/08 09:38:51;;;;;;;3.72;1.65;;;;;;;;;;5146749;27;20042;-71
2023/07/08 09:41:31;;;;;;;2.72;1.67;;;;;;;;;;5143685;27;20046;-72
2023/07/08 09:44:06;;;;;;;2.72;1.80;;;;;;;;;;5145631;27;20051;-71
2023/07/08 09:46:37;;;;;;;2.00;1.50;;;;;;;;;;5142548;27;20055;-71
2023/07/08 09:49:11;;;;;;;3.22;1.80;;;;;;;;;;5146246;27;20047;-71
2023/07/08 09:51:39;;;;;;;2.47;1.60;;;;;;;;;;5147131;27;20430;-71
2023/07/08 09:54:07;;;;;;;2.38;1.90;;;;;;;;;;5129165;27;20073;-71
2023/07/08 09:56:34;;;;;;;4.85;1.95;;;;;;;;;;5148614;27;20499;-71
2023/07/08 09:59:02;;;;;;;6.65;1.90;;;;;;;;;;5141282;27;20047;-72
2023/07/08 10:01:30;;;;;;;3.58;1.70;;;;;;;;;;5144556;27;20054;-71
2023/07/08 10:03:59;;;;;;;3.15;1.50;;;;;;;;;;5147321;27;20074;-71
2023/07/08 10:06:27;;;;;;;3.33;1.80;;;;;;;;;;5149055;27;20061;-71
2023/07/08 10:08:56;;;;;;;2.70;1.90;;;;;;;;;;5149256;27;20141;-72
2023/07/08 10:11:26;;;;;;;4.82;1.90;;;;;;;;;;5148649;27;20051;-71
2023/07/08 10:13:54;;;;;;;3.25;1.90;;;;;;;;;;5149127;27;20051;-71
2023/07/08 10:16:24;;;;;;;3.47;1.85;;;;;;;;;;5145726;27;20047;-71
2023/07/08 10:18:52;;;;;;;3.30;1.85;;;;;;;;;;5140074;27;20047;-71
2023/07/08 10:21:27;;;;;;;3.60;1.70;;;;;;;;;;5149523;27;20496;-71
2023/07/08 10:23:59;;;;;;;3.55;1.75;;;;;;;;;;5147035;27;20067;-71
2023/07/08 10:26:27;;;;;;;3.13;2.03;;;;;;;;;;5142299;27;20405;-71
2023/07/08 10:28:59;;;;;;;2.78;1.73;;;;;;;;;;5143780;27;20291;-71
2023/07/08 10:31:28;;;;;;;3.40;1.88;;;;;;;;;;5149886;27;20058;-71
2023/07/08 10:34:09;;;;;;;2.97;2.05;;;;;;;;;;5149385;27;20051;-71
2023/07/08 10:36:43;;;;;;;2.35;1.85;;;;;;;;;;5130539;27;20131;-71
2023/07/08 10:39:22;;;;;;;3.67;1.83;;;;;;;;;;5151902;27;20054;-71
2023/07/08 10:41:52;;;;;;;2.47;1.80;;;;;;;;;;5149876;27;20058;-71
2023/07/08 10:44:22;;;;;;;1.98;1.75;;;;;;;;;;5147053;27;20066;-71
2023/07/08 10:46:56;;;;;;;3.72;1.83;;;;;;;;;;5151168;27;20054;-72
2023/07/08 10:49:30;;;;;;;3.08;1.85;;;;;;;;;;5148686;27;20436;-72
2023/07/08 10:52:05;;;;;;;3.03;1.85;;;;;;;;;;5149374;27;20046;-71
2023/07/08 10:54:40;;;;;;;4.07;2.10;;;;;;;;;;5145474;27;20057;-71
2023/07/08 10:57:15;;;;;;;3.55;2.00;;;;;;;;;;5147604;27;20051;-71
2023/07/08 10:59:48;;;;;;;2.67;1.85;;;;;;;;;;5149879;27;20677;-71
2023/07/08 11:02:35;;;;;;;3.80;2.05;;;;;;;;;;5148026;27;20134;-71
2023/07/08 11:05:08;;;;;;;2.25;1.77;;;;;;;;;;5144005;27;20065;-71
2023/07/08 11:07:35;;;;;;;;;;;;;;;;;;5150618;27;20050;-71
2023/07/08 11:10:06;;;;;;;2.53;1.92;;;;;;;;;;5138974;27;20005;-71
2023/07/08 11:12:36;;;;;;;2.97;1.77;;;;;;;;;;5125166;27;20051;-71
2023/07/08 11:15:06;;;;;;;5.60;2.05;;;;;;;;;;5145897;27;20050;-71
2023/07/08 11:17:37;;;;;;;2.33;2.08;;;;;;;;;;5139378;27;20058;-71
2023/07/08 11:20:12;;;;;;;3.60;2.08;;;;;;;;;;5136402;27;20445;-71
2023/07/08 11:22:41;;;;;;;4.13;2.20;;;;;;;;;;5139449;27;20051;-71
2023/07/08 11:25:18;;;;;;;2.60;2.22;;;;;;;;;;5141545;27;20074;-71
2023/07/08 11:27:47;;;;;;;3.00;2.08;;;;;;;;;;5119618;27;20039;-71
2023/07/08 11:30:15;;;;;;;2.83;2.05;;;;;;;;;;5143068;27;20043;-72
2023/07/08 11:32:44;;;;;;;2.70;2.20;;;;;;;;;;5137735;27;20144;-68
2023/07/08 11:35:18;;;;;;;2.95;2.30;;;;;;;;;;5139659;27;20050;-67
2023/07/08 11:37:45;;;;;;;4.00;2.13;;;;;;;;;;5146142;27;20054;-68
2023/07/08 11:40:20;;;;;;;2.85;2.35;;;;;;;;;;5146692;27;20046;-67
2023/07/08 11:42:50;;;;;;;2.33;1.95;;;;;;;;;;5142653;27;20042;-67
2023/07/08 11:45:19;;;;;;;;;;;;;;;;;;5141753;27;20146;-67
2023/07/08 11:47:48;;;;;;;6.15;2.30;;;;;;;;;;5142139;27;19937;-68
2023/07/08 11:50:18;;;;;;;2.55;2.20;;;;;;;;;;5144035;27;20443;-68
2023/07/08 11:52:52;;;;;;;2.55;2.30;;;;;;;;;;5149297;27;20046;-68
2023/07/08 11:55:28;;;;;;;3.10;2.40;;;;;;;;;;5143485;27;20117;-68
2023/07/08 11:57:57;;;;;;;3.05;2.60;;;;;;;;;;5141280;27;20062;-68
2023/07/08 12:00:25;;;;;;;2.58;2.30;;;;;;;;;;5144884;27;20055;-68
2023/07/08 12:02:53;;;;;;;6.68;2.70;;;;;;;;;;5149411;27;20505;-69
2023/07/08 12:05:30;;;;;;;2.95;2.30;;;;;;;;;;5148700;27;20059;-69
2023/07/08 12:07:59;;;;;;;2.65;2.30;;;;;;;;;;5142182;27;20042;-69
2023/07/08 12:10:30;;;;;;;2.63;2.30;;;;;;;;;;5140248;27;20047;-69
2023/07/08 12:12:57;;;;;;;7.65;2.70;;;;;;;;;;5136347;27;20051;-68
2023/07/08 12:15:26;;;;;;;4.25;2.33;;;;;;;;;;5141545;27;20061;-68
2023/07/08 12:17:55;;;;;;;3.78;2.50;;;;;;;;;;5143546;27;20064;-69
2023/07/08 12:20:23;;;;;;;3.25;2.50;;;;;;;;;;5125604;27;20055;-68
2023/07/08 12:22:51;;;;;;;3.88;2.90;;;;;;;;;;5138738;27;20562;-69
2023/07/08 12:25:20;;;;;;;5.07;2.95;;;;;;;;;;5148411;27;20928;-68
2023/07/08 12:27:48;;;;;;;4.57;2.60;;;;;;;;;;5135870;27;20047;-69
2023/07/08 12:30:16;;;;;;;4.18;2.80;;;;;;;;;;5139910;27;20043;-68
2023/07/08 12:32:44;;;;;;;3.35;2.80;;;;;;;;;;5130505;27;20409;-69
2023/07/08 12:35:18;;;;;;;3.08;2.50;;;;;;;;;;5137401;27;20046;-68
2023/07/08 12:37:45;;;;;;;5.05;2.85;;;;;;;;;;5142119;27;20049;-69
2023/07/08 12:40:13;;;;;;;3.47;2.60;;;;;;;;;;5125082;27;20094;-68
2023/07/08 12:42:40;;;;;;;8.40;2.60;;;;;;;;;;5143921;27;20058;-68
2023/07/08 12:45:13;;;;;;;4.47;2.83;;;;;;;;;;5137570;27;20058;-68
2023/07/08 12:47:41;;;;;;;3.20;2.65;;;;;;;;;;5145025;27;20047;-68
2023/07/08 12:50:10;;;;;;;2.70;2.50;;;;;;;;;;5145249;27;20043;-68
2023/07/08 12:52:41;;;;;;;4.45;2.60;;;;;;;;;;5143215;27;20046;-68
2023/07/08 12:55:10;;;;;;;3.42;2.83;;;;;;;;;;5145297;27;20046;-68
2023/07/08 12:57:38;;;;;;;3.78;2.67;;;;;;;;;;5140406;27;20070;-69
2023/07/08 13:00:06;;;;;;;4.68;2.65;;;;;;;;;;5141266;27;20066;-69
2023/07/08 13:02:35;;;;;;;3.28;2.90;;;;;;;;;;5144045;27;20054;-69
2023/07/08 13:05:04;;;;;;;3.38;2.78;;;;;;;;;;5141875;27;20495;-68
2023/07/08 13:07:35;;;;;;;2.97;2.70;;;;;;;;;;5138693;27;20054;-69
2023/07/08 13:10:03;;;;;;;4.18;2.95;;;;;;;;;;5144131;27;20058;-69
2023/07/08 13:12:30;;;;;;;3.63;3.10;;;;;;;;;;5128897;27;20042;-69
2023/07/08 13:14:59;;;;;;;5.35;3.00;;;;;;;;;;5147690;27;20042;-69
2023/07/08 13:17:26;;;;;;;5.03;3.00;;;;;;;;;;5141393;27;20508;-68
2023/07/08 13:19:55;;;;;;;3.88;2.90;;;;;;;;;;5143143;27;20066;-69
2023/07/08 13:22:23;;;;;;;3.33;2.97;;;;;;;;;;5141018;27;20512;-69
2023/07/08 13:25:00;;;;;;;3.47;2.97;;;;;;;;;;5138802;27;20047;-69
2023/07/08 13:27:27;;;;;;;3.97;3.03;;;;;;;;;;5119233;27;20062;-69
2023/07/08 13:29:55;;;;;;;4.10;3.20;;;;;;;;;;5135010;27;20497;-69
2023/07/08 13:32:30;;;;;;;5.43;3.00;;;;;;;;;;5143993;27;20053;-69
2023/07/08 13:34:59;;;;;;;4.13;3.28;;;;;;;;;;5140893;27;20127;-69
2023/07/08 13:37:26;;;;;;;3.47;3.05;;;;;;;;;;5144720;27;20481;-69
2023/07/08 13:39:54;;;;;;;4.20;3.40;;;;;;;;;;5147978;27;20062;-69
2023/07/08 13:42:22;;;;;;;3.33;3.03;;;;;;;;;;5144705;27;20038;-69
2023/07/08 13:44:50;;;;;;;6.50;3.38;;;;;;;;;;5143891;27;20046;-69
2023/07/08 13:47:23;;;;;;;3.35;3.05;;;;;;;;;;5121076;27;20484;-69
2023/07/08 13:49:52;;;;;;;3.30;3.00;;;;;;;;;;5143226;27;20048;-69
2023/07/08 13:52:22;;;;;;;4.00;3.60;;;;;;;;;;5141235;27;20509;-69
2023/07/08 13:54:50;;;;;;;3.80;3.40;;;;;;;;;;5124480;27;20047;-69
2023/07/08 13:57:19;;;;;;;3.60;3.30;;;;;;;;;;5136619;27;20057;-66
2023/07/08 13:59:47;;;;;;;3.47;3.17;;;;;;;;;;5143564;27;20601;-67
2023/07/08 14:02:18;;;;;;;4.00;3.42;;;;;;;;;;5129329;27;20038;-66
2023/07/08 14:04:46;;;;;;;4.10;3.45;;;;;;;;;;5145016;27;20050;-66
2023/07/08 14:07:17;;;;;;;3.97;3.58;;;;;;;;;;5138285;27;20047;-67
2023/07/08 14:09:46;;;;;;;4.45;4.05;;;;;;;;;;5139276;27;20055;-66
2023/07/08 14:12:13;;;;;;;4.40;4.00;;;;;;;;;;5148042;27;20045;-67
2023/07/08 14:14:40;;;;;;;4.53;4.13;;;;;;;;;;5140895;27;20047;-67
2023/07/08 14:17:10;;;;;;;4.00;3.60;;;;;;;;;;5150747;27;20051;-67
2023/07/08 14:19:38;;;;;;;3.95;3.58;;;;;;;;;;5150178;27;20057;-66
2023/07/08 14:22:11;;;;;;;5.57;3.60;;;;;;;;;;5150900;27;20066;-66
2023/07/08 14:24:39;;;;;;;3.90;3.60;;;;;;;;;;5148819;27;20046;-66
2023/07/08 14:27:11;;;;;;;4.43;4.03;;;;;;;;;;5139844;27;20046;-67
2023/07/08 14:29:39;;;;;;;5.13;3.70;;;;;;;;;;5123215;27;20103;-66
2023/07/08 14:32:07;;;;;;;4.32;3.40;;;;;;;;;;5144760;27;20042;-66
2023/07/08 14:34:34;;;;;;;4.65;3.65;;;;;;;;;;5148841;27;20073;-66
2023/07/08 14:37:02;;;;;;;4.57;3.92;;;;;;;;;;5150269;27;20051;-66
2023/07/08 14:39:29;;;;;;;4.80;3.85;;;;;;;;;;5152320;27;20148;-66
2023/07/08 14:41:56;;;;;;;4.32;3.92;;;;;;;;;;5143446;27;20077;-67
2023/07/08 14:44:26;;;;;;;4.22;3.83;;;;;;;;;;5143193;27;20061;-67
2023/07/08 14:46:54;;;;;;;5.22;3.70;;;;;;;;;;5146790;27;20073;-66
2023/07/08 14:49:23;;;;;;;4.38;3.90;;;;;;;;;;5144800;27;20508;-66
2023/07/08 14:51:50;;;;;;;4.63;3.90;;;;;;;;;;5145030;27;20046;-67